الصفحة الرئيسية
METAR-TAF:

METAR-TAF

مطار :

بورت أوف سبين, ترينيداد, ترينيداد وتوباغو

دائرة عرض: 10-37N, خط طول: 061-21W, ارتفاع: 12 متر

مراقبة الطقس الحالي

تاريخ ووقت الإصدار 22 دقيقة قبل الساعة 09:00UTC
ريح 7 عقدة من الشرق
درجة الحرارة 26°درجة مئوية
الرطوبة 84%
ضغط 1015 hPa
الرؤية 10 كم أو أكثر
غيوم قليلة على ارتفاع 1600 قدم
غيوم متفرقة على ارتفاع 3600 قدم
زخات في الجوار

METAR: TTPP 170900Z 09007KT 9999 VCSH FEW016 SCT036 26/23 Q1015 NOSIG RMK VCSH-S

زمن: 05:22 (09:22 UTC)

توقعات

تاريخ ووقت الإصدار 5ساعات و 22 دقيقة قبل الساعة 04:00UTC
التوقعات صالحة من17 الساعة 06 UTC إلى 18 الساعة 06 UTC
ريح 5 عقدة من الشرق/الجنوب الشرقي
الرؤية 10 كم أو أكثر
غيوم قليلة على ارتفاع 1600 قدم
أصبح
من 17 الساعة 12 UTC إلى 17 الساعة 14 UTC
ريح 15 عقدة من الشرق
غيوم متفرقة على ارتفاع 2000 قدم
مؤقت
من 17 الساعة 15 UTC إلى 17 الساعة 19 UTC
الرؤية: 6000 متر
غيوم متفرقة على ارتفاع 1500 قدم
زخات من المطر

TAF: TTPP 170400Z 1706/1806 12005KT 9999 FEW016 BECMG 1712/1714 09015KT SCT020 TEMPO 1715/1719 6000 SHRA SCT015

أرصاد الطقس والتوقعات من أكثر من 4000 مطار (تقارير الطقس للمطار METAR والتنبؤ بالطقس بالمطارTAF).

المحطات المتاحة هي النقط الصفراء والحمراء على الخريطة.

حرك المؤشر فوق النقطة لمعرفة اسم المحطة.

ثم انقر لمعرفة أرصاد وتوقعات الطقس.

لتغيير الخارطة: اضغط على الأزرار الخضراء مع رمز الصليب الأسود للتكبير. على الزر الأخضر مع شرطة للتصغير، أو على الأسهم الخضراء للخرائط المجاورة.


METAR-TAF: